sensor_id;sensor_type;location;lat;lon;timestamp;pressure;altitude;pressure_sealevel;temperature;humidity
82512;BME280;72152;65.012;25.464;2023-12-20T00:03:06;97091.73;;;-1.26;78.36
82512;BME280;72152;65.012;25.464;2023-12-20T00:06:13;97096.45;;;-1.30;78.40
82512;BME280;72152;65.012;25.464;2023-12-20T00:09:17;97103.52;;;-1.30;78.47
82512;BME280;72152;65.012;25.464;2023-12-20T00:12:27;97113.05;;;-1.32;78.25
82512;BME280;72152;65.012;25.464;2023-12-20T00:15:26;97122.58;;;-1.35;78.68
82512;BME280;72152;65.012;25.464;2023-12-20T00:18:24;97126.38;;;-1.36;78.39
82512;BME280;72152;65.012;25.464;2023-12-20T00:21:28;97137.62;;;-1.38;78.57
82512;BME280;72152;65.012;25.464;2023-12-20T00:24:36;97145.05;;;-1.39;78.42
82512;BME280;72152;65.012;25.464;2023-12-20T00:27:42;97150.62;;;-1.44;78.21
82512;BME280;72152;65.012;25.464;2023-12-20T00:30:42;97161.56;;;-1.50;78.17
82512;BME280;72152;65.012;25.464;2023-12-20T00:33:42;97166.27;;;-1.54;78.46
82512;BME280;72152;65.012;25.464;2023-12-20T00:36:43;97173.83;;;-1.52;78.63
82512;BME280;72152;65.012;25.464;2023-12-20T00:39:42;97178.61;;;-1.49;78.60
82512;BME280;72152;65.012;25.464;2023-12-20T00:42:44;97183.27;;;-1.50;78.39
82512;BME280;72152;65.012;25.464;2023-12-20T00:45:57;97193.63;;;-1.50;78.40
82512;BME280;72152;65.012;25.464;2023-12-20T00:49:02;97201.55;;;-1.50;78.43
82512;BME280;72152;65.012;25.464;2023-12-20T00:52:10;97206.20;;;-1.50;78.46
82512;BME280;72152;65.012;25.464;2023-12-20T00:55:26;97213.66;;;-1.53;78.58
82512;BME280;72152;65.012;25.464;2023-12-20T00:58:33;97225.07;;;-1.57;78.36
82512;BME280;72152;65.012;25.464;2023-12-20T01:01:35;97227.72;;;-1.63;78.38
82512;BME280;72152;65.012;25.464;2023-12-20T01:04:41;97236.75;;;-1.67;78.52
82512;BME280;72152;65.012;25.464;2023-12-20T01:07:48;97243.96;;;-1.66;78.77
82512;BME280;72152;65.012;25.464;2023-12-20T01:10:49;97247.40;;;-1.65;78.70
82512;BME280;72152;65.012;25.464;2023-12-20T01:13:55;97258.44;;;-1.65;78.75
82512;BME280;72152;65.012;25.464;2023-12-20T01:17:01;97268.44;;;-1.66;78.77
82512;BME280;72152;65.012;25.464;2023-12-20T01:20:06;97267.27;;;-1.69;78.64
82512;BME280;72152;65.012;25.464;2023-12-20T01:23:04;97270.19;;;-1.69;78.64
82512;BME280;72152;65.012;25.464;2023-12-20T01:26:09;97276.24;;;-1.70;78.85
82512;BME280;72152;65.012;25.464;2023-12-20T01:29:15;97284.72;;;-1.74;78.60
82512;BME280;72152;65.012;25.464;2023-12-20T01:32:16;97295.45;;;-1.78;78.90
82512;BME280;72152;65.012;25.464;2023-12-20T01:35:22;97297.52;;;-1.79;78.86
82512;BME280;72152;65.012;25.464;2023-12-20T01:38:29;97309.57;;;-1.78;78.90
82512;BME280;72152;65.012;25.464;2023-12-20T01:41:35;97316.32;;;-1.80;78.86
82512;BME280;72152;65.012;25.464;2023-12-20T01:44:41;97322.34;;;-1.80;78.83
82512;BME280;72152;65.012;25.464;2023-12-20T01:47:50;97328.70;;;-1.79;78.74
82512;BME280;72152;65.012;25.464;2023-12-20T01:50:56;97333.17;;;-1.78;78.76
82512;BME280;72152;65.012;25.464;2023-12-20T01:53:58;97333.86;;;-1.77;78.93
82512;BME280;72152;65.012;25.464;2023-12-20T01:57:07;97342.28;;;-1.73;78.86
82512;BME280;72152;65.012;25.464;2023-12-20T02:00:11;97352.27;;;-1.74;78.63
82512;BME280;72152;65.012;25.464;2023-12-20T02:03:16;97353.32;;;-1.75;78.60
82512;BME280;72152;65.012;25.464;2023-12-20T02:06:22;97359.71;;;-1.77;78.57
82512;BME280;72152;65.012;25.464;2023-12-20T02:09:29;97365.94;;;-1.80;78.77
82512;BME280;72152;65.012;25.464;2023-12-20T02:12:29;97375.26;;;-1.81;78.81
82512;BME280;72152;65.012;25.464;2023-12-20T02:15:32;97381.61;;;-1.79;78.92
82512;BME280;72152;65.012;25.464;2023-12-20T02:18:34;97393.31;;;-1.77;78.72
82512;BME280;72152;65.012;25.464;2023-12-20T02:21:40;97401.05;;;-1.74;78.74
82512;BME280;72152;65.012;25.464;2023-12-20T02:24:54;97411.36;;;-1.73;78.80
82512;BME280;72152;65.012;25.464;2023-12-20T02:27:54;97420.87;;;-1.74;78.57
82512;BME280;72152;65.012;25.464;2023-12-20T02:31:00;97426.23;;;-1.78;78.62
82512;BME280;72152;65.012;25.464;2023-12-20T02:34:06;97425.06;;;-1.83;78.79
82512;BME280;72152;65.012;25.464;2023-12-20T02:37:12;97433.69;;;-1.84;78.77
82512;BME280;72152;65.012;25.464;2023-12-20T02:40:17;97431.27;;;-1.85;78.72
82512;BME280;72152;65.012;25.464;2023-12-20T02:43:29;97435.93;;;-1.83;78.89
82512;BME280;72152;65.012;25.464;2023-12-20T02:46:33;97443.16;;;-1.85;78.96
82512;BME280;72152;65.012;25.464;2023-12-20T02:49:39;97454.91;;;-1.86;78.54
82512;BME280;72152;65.012;25.464;2023-12-20T02:52:42;97456.80;;;-1.90;78.74
82512;BME280;72152;65.012;25.464;2023-12-20T02:55:46;97462.16;;;-1.91;78.70
82512;BME280;72152;65.012;25.464;2023-12-20T02:58:46;97469.44;;;-1.95;78.67
82512;BME280;72152;65.012;25.464;2023-12-20T03:01:54;97477.21;;;-1.99;78.51
82512;BME280;72152;65.012;25.464;2023-12-20T03:04:57;97487.39;;;-2.03;78.62
82512;BME280;72152;65.012;25.464;2023-12-20T03:08:03;97489.84;;;-2.08;78.57
82512;BME280;72152;65.012;25.464;2023-12-20T03:11:06;97505.17;;;-2.11;78.56
82512;BME280;72152;65.012;25.464;2023-12-20T03:14:05;97513.44;;;-2.11;78.64
82512;BME280;72152;65.012;25.464;2023-12-20T03:17:11;97519.83;;;-2.14;78.41
82512;BME280;72152;65.012;25.464;2023-12-20T03:20:31;97525.20;;;-2.17;78.50
82512;BME280;72152;65.012;25.464;2023-12-20T03:23:30;97537.92;;;-2.16;78.38
82512;BME280;72152;65.012;25.464;2023-12-20T03:26:39;97549.13;;;-2.19;78.09
82512;BME280;72152;65.012;25.464;2023-12-20T03:29:40;97545.70;;;-2.24;78.16
82512;BME280;72152;65.012;25.464;2023-12-20T03:32:40;97550.89;;;-2.25;78.39
82512;BME280;72152;65.012;25.464;2023-12-20T03:35:50;97559.16;;;-2.28;78.28
82512;BME280;72152;65.012;25.464;2023-12-20T03:39:01;97568.99;;;-2.34;78.09
82512;BME280;72152;65.012;25.464;2023-12-20T03:42:06;97566.95;;;-2.41;78.28
82512;BME280;72152;65.012;25.464;2023-12-20T03:45:15;97574.18;;;-2.43;78.32
82512;BME280;72152;65.012;25.464;2023-12-20T03:48:22;97587.45;;;-2.44;78.34
82512;BME280;72152;65.012;25.464;2023-12-20T03:51:29;97593.14;;;-2.47;78.31
82512;BME280;72152;65.012;25.464;2023-12-20T03:54:33;97595.89;;;-2.49;78.31
82512;BME280;72152;65.012;25.464;2023-12-20T03:57:37;97602.77;;;-2.46;78.51
82512;BME280;72152;65.012;25.464;2023-12-20T04:00:39;97603.12;;;-2.48;78.23
82512;BME280;72152;65.012;25.464;2023-12-20T04:03:41;97611.40;;;-2.51;78.23
82512;BME280;72152;65.012;25.464;2023-12-20T04:06:46;97611.89;;;-2.52;78.40
82512;BME280;72152;65.012;25.464;2023-12-20T04:09:49;97620.34;;;-2.49;78.33
82512;BME280;72152;65.012;25.464;2023-12-20T04:13:00;97626.88;;;-2.52;78.04
82512;BME280;72152;65.012;25.464;2023-12-20T04:16:08;97632.23;;;-2.57;78.01
82512;BME280;72152;65.012;25.464;2023-12-20T04:19:16;97639.11;;;-2.60;78.10
82512;BME280;72152;65.012;25.464;2023-12-20T04:25:35;97663.71;;;-2.64;77.79
82512;BME280;72152;65.012;25.464;2023-12-20T04:31:56;97676.29;;;-2.66;77.86
82512;BME280;72152;65.012;25.464;2023-12-20T04:35:04;97685.58;;;-2.68;77.62
82512;BME280;72152;65.012;25.464;2023-12-20T04:38:10;97688.49;;;-2.73;77.57
82512;BME280;72152;65.012;25.464;2023-12-20T04:41:14;97695.55;;;-2.73;77.56
82512;BME280;72152;65.012;25.464;2023-12-20T04:44:16;97708.12;;;-2.73;77.46
82512;BME280;72152;65.012;25.464;2023-12-20T04:47:22;97709.66;;;-2.74;77.47
82512;BME280;72152;65.012;25.464;2023-12-20T04:50:28;97706.90;;;-2.75;77.50
82512;BME280;72152;65.012;25.464;2023-12-20T04:53:35;97714.98;;;-2.75;77.31
82512;BME280;72152;65.012;25.464;2023-12-20T04:56:41;97718.10;;;-2.80;77.28
82512;BME280;72152;65.012;25.464;2023-12-20T04:59:42;97719.99;;;-2.80;77.42
82512;BME280;72152;65.012;25.464;2023-12-20T05:05:52;97748.36;;;-2.81;77.19
82512;BME280;72152;65.012;25.464;2023-12-20T05:08:58;97751.28;;;-2.87;77.22
82512;BME280;72152;65.012;25.464;2023-12-20T05:12:00;97755.59;;;-2.90;77.24
82512;BME280;72152;65.012;25.464;2023-12-20T05:15:04;97767.45;;;-2.92;77.17
82512;BME280;72152;65.012;25.464;2023-12-20T05:18:02;97781.52;;;-2.97;77.23
82512;BME280;72152;65.012;25.464;2023-12-20T05:21:05;97789.96;;;-3.01;77.23
82512;BME280;72152;65.012;25.464;2023-12-20T05:24:13;97798.36;;;-3.06;77.44
82512;BME280;72152;65.012;25.464;2023-12-20T05:27:24;97811.09;;;-3.05;77.44
82512;BME280;72152;65.012;25.464;2023-12-20T05:30:30;97812.48;;;-3.03;77.54
82512;BME280;72152;65.012;25.464;2023-12-20T05:33:36;97821.42;;;-3.00;77.48
82512;BME280;72152;65.012;25.464;2023-12-20T05:36:40;97825.89;;;-3.04;77.10
82512;BME280;72152;65.012;25.464;2023-12-20T05:39:46;97833.27;;;-3.09;77.05
82512;BME280;72152;65.012;25.464;2023-12-20T05:42:44;97833.92;;;-3.16;77.09
82512;BME280;72152;65.012;25.464;2023-12-20T05:45:41;97839.05;;;-3.22;77.13
82512;BME280;72152;65.012;25.464;2023-12-20T05:48:41;97841.95;;;-3.28;77.11
82512;BME280;72152;65.012;25.464;2023-12-20T05:51:46;97850.86;;;-3.33;77.12
82512;BME280;72152;65.012;25.464;2023-12-20T05:54:54;97855.13;;;-3.41;77.36
82512;BME280;72152;65.012;25.464;2023-12-20T05:57:56;97865.60;;;-3.42;77.52
82512;BME280;72152;65.012;25.464;2023-12-20T06:00:55;97869.35;;;-3.46;77.46
82512;BME280;72152;65.012;25.464;2023-12-20T06:04:01;97873.29;;;-3.49;77.32
82512;BME280;72152;65.012;25.464;2023-12-20T06:06:59;97881.52;;;-3.51;77.25
82512;BME280;72152;65.012;25.464;2023-12-20T06:10:01;97883.38;;;-3.57;77.33
82512;BME280;72152;65.012;25.464;2023-12-20T06:13:03;97882.98;;;-3.63;77.40
82512;BME280;72152;65.012;25.464;2023-12-20T06:16:09;97885.73;;;-3.63;77.47
82512;BME280;72152;65.012;25.464;2023-12-20T06:19:20;97886.42;;;-3.65;77.58
82512;BME280;72152;65.012;25.464;2023-12-20T06:22:18;97901.36;;;-3.65;77.51
82512;BME280;72152;65.012;25.464;2023-12-20T06:25:15;97906.84;;;-3.67;77.43
82512;BME280;72152;65.012;25.464;2023-12-20T06:28:20;97911.62;;;-3.73;77.49
82512;BME280;72152;65.012;25.464;2023-12-20T06:31:15;97916.58;;;-3.75;77.51
82512;BME280;72152;65.012;25.464;2023-12-20T06:34:21;97915.02;;;-3.77;77.58
82512;BME280;72152;65.012;25.464;2023-12-20T06:37:22;97916.55;;;-3.78;77.48
82512;BME280;72152;65.012;25.464;2023-12-20T06:40:27;97913.77;;;-3.82;77.42
82512;BME280;72152;65.012;25.464;2023-12-20T06:43:32;97923.04;;;-3.84;77.51
82512;BME280;72152;65.012;25.464;2023-12-20T06:46:38;97920.07;;;-3.88;77.48
82512;BME280;72152;65.012;25.464;2023-12-20T06:49:41;97929.51;;;-3.89;77.52
82512;BME280;72152;65.012;25.464;2023-12-20T06:52:44;97937.23;;;-3.91;77.21
82512;BME280;72152;65.012;25.464;2023-12-20T06:55:50;97942.17;;;-3.96;77.43
82512;BME280;72152;65.012;25.464;2023-12-20T06:58:47;97943.19;;;-3.97;77.47
82512;BME280;72152;65.012;25.464;2023-12-20T07:01:48;97946.77;;;-4.01;77.38
82512;BME280;72152;65.012;25.464;2023-12-20T07:04:55;97953.79;;;-4.02;77.40
82512;BME280;72152;65.012;25.464;2023-12-20T07:07:54;97961.38;;;-3.99;77.19
82512;BME280;72152;65.012;25.464;2023-12-20T07:11:01;97965.79;;;-4.04;76.84
82512;BME280;72152;65.012;25.464;2023-12-20T07:14:07;97969.48;;;-4.13;77.00
82512;BME280;72152;65.012;25.464;2023-12-20T07:17:14;97973.34;;;-4.20;76.84
82512;BME280;72152;65.012;25.464;2023-12-20T07:20:31;97976.54;;;-4.27;76.68
82512;BME280;72152;65.012;25.464;2023-12-20T07:23:33;97981.60;;;-4.34;76.94
82512;BME280;72152;65.012;25.464;2023-12-20T07:26:38;97982.71;;;-4.41;76.69
82512;BME280;72152;65.012;25.464;2023-12-20T07:29:46;97982.48;;;-4.47;76.79
82512;BME280;72152;65.012;25.464;2023-12-20T07:32:56;97989.09;;;-4.53;76.67
82512;BME280;72152;65.012;25.464;2023-12-20T07:36:07;97999.18;;;-4.57;76.66
82512;BME280;72152;65.012;25.464;2023-12-20T07:39:08;97996.73;;;-4.61;76.67
82512;BME280;72152;65.012;25.464;2023-12-20T07:42:07;97999.29;;;-4.62;76.39
82512;BME280;72152;65.012;25.464;2023-12-20T07:45:15;98003.38;;;-4.64;76.51
82512;BME280;72152;65.012;25.464;2023-12-20T07:48:19;98004.58;;;-4.65;76.13
82512;BME280;72152;65.012;25.464;2023-12-20T07:51:21;98016.56;;;-4.66;76.31
82512;BME280;72152;65.012;25.464;2023-12-20T07:54:26;98026.64;;;-4.70;76.16
82512;BME280;72152;65.012;25.464;2023-12-20T07:57:30;98031.96;;;-4.70;76.19
82512;BME280;72152;65.012;25.464;2023-12-20T08:00:32;98044.65;;;-4.70;75.80
82512;BME280;72152;65.012;25.464;2023-12-20T08:03:37;98051.41;;;-4.76;75.59
82512;BME280;72152;65.012;25.464;2023-12-20T08:06:43;98060.51;;;-4.88;75.21
82512;BME280;72152;65.012;25.464;2023-12-20T08:09:51;98067.06;;;-4.97;75.26
82512;BME280;72152;65.012;25.464;2023-12-20T08:12:57;98078.55;;;-5.08;74.67
82512;BME280;72152;65.012;25.464;2023-12-20T08:16:02;98087.62;;;-5.31;74.29
82512;BME280;72152;65.012;25.464;2023-12-20T08:19:05;98094.45;;;-5.51;74.57
82512;BME280;72152;65.012;25.464;2023-12-20T08:22:06;98100.83;;;-5.59;74.87
82512;BME280;72152;65.012;25.464;2023-12-20T08:25:17;98109.27;;;-5.66;74.96
82512;BME280;72152;65.012;25.464;2023-12-20T08:28:24;98112.83;;;-5.68;74.90
82512;BME280;72152;65.012;25.464;2023-12-20T08:31:35;98118.67;;;-5.76;74.80
82512;BME280;72152;65.012;25.464;2023-12-20T08:34:41;98121.85;;;-5.80;74.94
82512;BME280;72152;65.012;25.464;2023-12-20T08:37:45;98123.18;;;-5.84;74.90
82512;BME280;72152;65.012;25.464;2023-12-20T08:40:45;98128.66;;;-5.84;74.79
82512;BME280;72152;65.012;25.464;2023-12-20T08:43:52;98132.27;;;-5.82;74.44
82512;BME280;72152;65.012;25.464;2023-12-20T08:46:51;98133.39;;;-5.87;74.29
82512;BME280;72152;65.012;25.464;2023-12-20T08:49:52;98129.30;;;-5.95;74.04
82512;BME280;72152;65.012;25.464;2023-12-20T08:52:55;98138.52;;;-6.05;73.94
82512;BME280;72152;65.012;25.464;2023-12-20T08:55:56;98145.33;;;-6.15;74.04
82512;BME280;72152;65.012;25.464;2023-12-20T08:59:02;98151.66;;;-6.22;74.25
82512;BME280;72152;65.012;25.464;2023-12-20T09:02:03;98149.16;;;-6.27;74.38
82512;BME280;72152;65.012;25.464;2023-12-20T09:05:10;98157.05;;;-6.27;74.70
82512;BME280;72152;65.012;25.464;2023-12-20T09:08:22;98163.09;;;-6.24;74.47
82512;BME280;72152;65.012;25.464;2023-12-20T09:11:26;98170.58;;;-6.27;74.46
82512;BME280;72152;65.012;25.464;2023-12-20T09:14:28;98171.25;;;-6.27;74.47
82512;BME280;72152;65.012;25.464;2023-12-20T09:17:36;98178.20;;;-6.30;74.21
82512;BME280;72152;65.012;25.464;2023-12-20T09:20:40;98181.71;;;-6.33;74.25
82512;BME280;72152;65.012;25.464;2023-12-20T09:23:46;98186.94;;;-6.29;74.37
82512;BME280;72152;65.012;25.464;2023-12-20T09:26:53;98190.63;;;-6.24;74.16
82512;BME280;72152;65.012;25.464;2023-12-20T09:29:59;98185.65;;;-6.25;74.01
82512;BME280;72152;65.012;25.464;2023-12-20T09:33:00;98189.06;;;-6.26;73.73
82512;BME280;72152;65.012;25.464;2023-12-20T09:36:00;98196.37;;;-6.28;73.82
82512;BME280;72152;65.012;25.464;2023-12-20T09:42:21;98200.89;;;-6.33;73.67
82512;BME280;72152;65.012;25.464;2023-12-20T09:45:28;98201.62;;;-6.38;73.67
82512;BME280;72152;65.012;25.464;2023-12-20T09:48:30;98210.93;;;-6.42;73.57
82512;BME280;72152;65.012;25.464;2023-12-20T09:51:33;98217.67;;;-6.47;73.87
82512;BME280;72152;65.012;25.464;2023-12-20T09:54:39;98222.86;;;-6.44;73.96
82512;BME280;72152;65.012;25.464;2023-12-20T09:57:52;98230.69;;;-6.38;73.95
82512;BME280;72152;65.012;25.464;2023-12-20T10:01:00;98232.45;;;-6.37;74.00
82512;BME280;72152;65.012;25.464;2023-12-20T10:04:09;98242.89;;;-6.36;73.82
82512;BME280;72152;65.012;25.464;2023-12-20T10:07:15;98251.52;;;-6.33;73.88
82512;BME280;72152;65.012;25.464;2023-12-20T10:10:21;98248.30;;;-6.31;73.83
82512;BME280;72152;65.012;25.464;2023-12-20T10:13:26;98250.98;;;-6.27;73.96
82512;BME280;72152;65.012;25.464;2023-12-20T10:16:31;98254.59;;;-6.26;73.77
82512;BME280;72152;65.012;25.464;2023-12-20T10:19:38;98256.95;;;-6.28;73.89
82512;BME280;72152;65.012;25.464;2023-12-20T10:22:45;98261.91;;;-6.28;73.85
82512;BME280;72152;65.012;25.464;2023-12-20T10:25:47;98268.40;;;-6.28;73.95
82512;BME280;72152;65.012;25.464;2023-12-20T10:29:03;98273.91;;;-6.26;73.93
82512;BME280;72152;65.012;25.464;2023-12-20T10:32:28;98277.71;;;-6.25;73.74
82512;BME280;72152;65.012;25.464;2023-12-20T10:35:31;98283.83;;;-6.19;73.76
82512;BME280;72152;65.012;25.464;2023-12-20T10:38:38;98286.00;;;-6.21;73.27
82512;BME280;72152;65.012;25.464;2023-12-20T10:41:45;98285.89;;;-6.26;73.28
82512;BME280;72152;65.012;25.464;2023-12-20T10:44:49;98292.27;;;-6.31;73.32
82512;BME280;72152;65.012;25.464;2023-12-20T10:47:56;98295.45;;;-6.34;73.08
82512;BME280;72152;65.012;25.464;2023-12-20T10:51:00;98302.20;;;-6.31;73.34
82512;BME280;72152;65.012;25.464;2023-12-20T10:54:05;98307.55;;;-6.22;73.07
82512;BME280;72152;65.012;25.464;2023-12-20T10:57:02;98312.70;;;-6.14;72.92
82512;BME280;72152;65.012;25.464;2023-12-20T11:00:13;98316.67;;;-6.05;72.70
82512;BME280;72152;65.012;25.464;2023-12-20T11:03:16;98315.52;;;-6.03;72.02
82512;BME280;72152;65.012;25.464;2023-12-20T11:06:32;98317.45;;;-6.09;71.94
82512;BME280;72152;65.012;25.464;2023-12-20T11:09:43;98318.44;;;-6.10;71.87
82512;BME280;72152;65.012;25.464;2023-12-20T11:12:56;98322.14;;;-6.05;72.01
82512;BME280;72152;65.012;25.464;2023-12-20T11:16:04;98327.17;;;-6.03;71.92
82512;BME280;72152;65.012;25.464;2023-12-20T11:19:06;98330.25;;;-6.10;71.64
82512;BME280;72152;65.012;25.464;2023-12-20T11:22:14;98335.36;;;-6.18;71.66
82512;BME280;72152;65.012;25.464;2023-12-20T11:25:17;98337.71;;;-6.27;71.84
82512;BME280;72152;65.012;25.464;2023-12-20T11:28:28;98347.34;;;-6.33;72.28
82512;BME280;72152;65.012;25.464;2023-12-20T11:31:31;98356.95;;;-6.38;72.50
82512;BME280;72152;65.012;25.464;2023-12-20T11:34:48;98358.02;;;-6.36;72.67
82512;BME280;72152;65.012;25.464;2023-12-20T11:38:02;98359.77;;;-6.35;72.61
82512;BME280;72152;65.012;25.464;2023-12-20T11:41:01;98368.04;;;-6.32;72.67
82512;BME280;72152;65.012;25.464;2023-12-20T11:44:03;98373.02;;;-6.32;72.70
82512;BME280;72152;65.012;25.464;2023-12-20T11:47:06;98381.17;;;-6.27;72.86
82512;BME280;72152;65.012;25.464;2023-12-20T11:50:05;98384.20;;;-6.22;72.74
82512;BME280;72152;65.012;25.464;2023-12-20T11:53:06;98385.21;;;-6.23;72.64
82512;BME280;72152;65.012;25.464;2023-12-20T11:56:09;98389.67;;;-6.22;72.67
82512;BME280;72152;65.012;25.464;2023-12-20T11:59:13;98393.95;;;-6.22;72.68
82512;BME280;72152;65.012;25.464;2023-12-20T12:02:18;98396.52;;;-6.22;73.09
82512;BME280;72152;65.012;25.464;2023-12-20T12:05:25;98396.08;;;-6.19;72.90
82512;BME280;72152;65.012;25.464;2023-12-20T12:08:31;98394.16;;;-6.20;72.80
82512;BME280;72152;65.012;25.464;2023-12-20T12:11:35;98397.23;;;-6.21;72.83
82512;BME280;72152;65.012;25.464;2023-12-20T12:14:31;98399.08;;;-6.23;72.83
82512;BME280;72152;65.012;25.464;2023-12-20T12:17:40;98400.40;;;-6.25;73.03
82512;BME280;72152;65.012;25.464;2023-12-20T12:20:46;98410.45;;;-6.26;73.09
82512;BME280;72152;65.012;25.464;2023-12-20T12:23:57;98411.10;;;-6.27;73.18
82512;BME280;72152;65.012;25.464;2023-12-20T12:27:08;98416.05;;;-6.28;73.45
82512;BME280;72152;65.012;25.464;2023-12-20T12:30:16;98419.89;;;-6.32;73.22
82512;BME280;72152;65.012;25.464;2023-12-20T12:33:19;98427.48;;;-6.36;73.28
82512;BME280;72152;65.012;25.464;2023-12-20T12:36:19;98426.66;;;-6.41;73.73
82512;BME280;72152;65.012;25.464;2023-12-20T12:39:25;98435.14;;;-6.44;73.81
82512;BME280;72152;65.012;25.464;2023-12-20T12:42:37;98439.02;;;-6.46;73.83
82512;BME280;72152;65.012;25.464;2023-12-20T12:45:49;98443.76;;;-6.42;73.98
82512;BME280;72152;65.012;25.464;2023-12-20T12:48:58;98446.99;;;-6.36;74.03
82512;BME280;72152;65.012;25.464;2023-12-20T12:51:55;98448.64;;;-6.32;73.68
82512;BME280;72152;65.012;25.464;2023-12-20T12:54:52;98446.25;;;-6.31;73.84
82512;BME280;72152;65.012;25.464;2023-12-20T12:57:59;98438.50;;;-6.34;73.61
82512;BME280;72152;65.012;25.464;2023-12-20T13:01:00;98437.15;;;-6.39;73.37
82512;BME280;72152;65.012;25.464;2023-12-20T13:04:07;98438.46;;;-6.48;73.49
82512;BME280;72152;65.012;25.464;2023-12-20T13:07:13;98436.73;;;-6.55;73.95
82512;BME280;72152;65.012;25.464;2023-12-20T13:10:21;98440.73;;;-6.59;73.95
82512;BME280;72152;65.012;25.464;2023-12-20T13:13:22;98448.39;;;-6.60;74.29
82512;BME280;72152;65.012;25.464;2023-12-20T13:16:27;98453.55;;;-6.59;74.16
82512;BME280;72152;65.012;25.464;2023-12-20T13:19:29;98455.67;;;-6.56;74.28
82512;BME280;72152;65.012;25.464;2023-12-20T13:22:36;98458.20;;;-6.51;74.29
82512;BME280;72152;65.012;25.464;2023-12-20T13:25:47;98467.13;;;-6.50;74.47
82512;BME280;72152;65.012;25.464;2023-12-20T13:28:53;98475.09;;;-6.53;74.33
82512;BME280;72152;65.012;25.464;2023-12-20T13:31:59;98483.86;;;-6.52;74.56
82512;BME280;72152;65.012;25.464;2023-12-20T13:35:06;98492.25;;;-6.50;74.68
82512;BME280;72152;65.012;25.464;2023-12-20T13:38:09;98487.38;;;-6.42;74.64
82512;BME280;72152;65.012;25.464;2023-12-20T13:41:12;98494.50;;;-6.31;74.55
82512;BME280;72152;65.012;25.464;2023-12-20T13:44:18;98500.63;;;-6.26;74.63
82512;BME280;72152;65.012;25.464;2023-12-20T13:47:25;98504.81;;;-6.23;74.65
82512;BME280;72152;65.012;25.464;2023-12-20T13:50:32;98508.23;;;-6.23;74.68
82512;BME280;72152;65.012;25.464;2023-12-20T13:53:43;98512.02;;;-6.22;74.50
82512;BME280;72152;65.012;25.464;2023-12-20T13:56:48;98509.45;;;-6.22;74.65
82512;BME280;72152;65.012;25.464;2023-12-20T13:59:50;98510.52;;;-6.21;74.56
82512;BME280;72152;65.012;25.464;2023-12-20T14:02:55;98519.66;;;-6.18;74.78
82512;BME280;72152;65.012;25.464;2023-12-20T14:06:02;98523.73;;;-6.13;75.08
82512;BME280;72152;65.012;25.464;2023-12-20T14:09:03;98528.80;;;-6.09;74.96
82512;BME280;72152;65.012;25.464;2023-12-20T14:12:12;98533.91;;;-6.04;75.09
82512;BME280;72152;65.012;25.464;2023-12-20T14:15:28;98532.25;;;-6.02;74.97
82512;BME280;72152;65.012;25.464;2023-12-20T14:18:36;98537.27;;;-6.00;74.86
82512;BME280;72152;65.012;25.464;2023-12-20T14:21:43;98534.08;;;-5.98;74.97
82512;BME280;72152;65.012;25.464;2023-12-20T14:24:38;98535.11;;;-5.97;74.93
82512;BME280;72152;65.012;25.464;2023-12-20T14:27:41;98539.77;;;-5.96;74.89
82512;BME280;72152;65.012;25.464;2023-12-20T14:30:48;98539.79;;;-5.88;74.85
82512;BME280;72152;65.012;25.464;2023-12-20T14:33:54;98544.30;;;-5.86;74.74
82512;BME280;72152;65.012;25.464;2023-12-20T14:37:08;98547.67;;;-5.81;74.79
82512;BME280;72152;65.012;25.464;2023-12-20T14:40:19;98553.19;;;-5.73;74.68
82512;BME280;72152;65.012;25.464;2023-12-20T14:43:30;98556.10;;;-5.66;74.52
82512;BME280;72152;65.012;25.464;2023-12-20T14:46:37;98555.02;;;-5.61;74.34
82512;BME280;72152;65.012;25.464;2023-12-20T14:49:37;98559.11;;;-5.62;74.29
82512;BME280;72152;65.012;25.464;2023-12-20T14:52:41;98563.95;;;-5.68;74.23
82512;BME280;72152;65.012;25.464;2023-12-20T14:55:48;98565.55;;;-5.72;74.20
82512;BME280;72152;65.012;25.464;2023-12-20T14:58:55;98570.39;;;-5.77;74.52
82512;BME280;72152;65.012;25.464;2023-12-20T15:02:00;98570.48;;;-5.80;74.44
82512;BME280;72152;65.012;25.464;2023-12-20T15:05:02;98571.88;;;-5.78;74.64
82512;BME280;72152;65.012;25.464;2023-12-20T15:08:07;98572.48;;;-5.75;74.72
82512;BME280;72152;65.012;25.464;2023-12-20T15:11:05;98572.67;;;-5.67;74.77
82512;BME280;72152;65.012;25.464;2023-12-20T15:14:10;98574.06;;;-5.61;74.72
82512;BME280;72152;65.012;25.464;2023-12-20T15:17:18;98573.52;;;-5.55;74.54
82512;BME280;72152;65.012;25.464;2023-12-20T15:20:24;98572.70;;;-5.53;74.39
82512;BME280;72152;65.012;25.464;2023-12-20T15:23:43;98567.06;;;-5.46;74.57
82512;BME280;72152;65.012;25.464;2023-12-20T15:26:47;98570.04;;;-5.37;74.24
82512;BME280;72152;65.012;25.464;2023-12-20T15:29:39;98576.66;;;-5.32;74.23
82512;BME280;72152;65.012;25.464;2023-12-20T15:32:41;98583.16;;;-5.33;74.37
82512;BME280;72152;65.012;25.464;2023-12-20T15:35:41;98592.42;;;-5.33;74.39
82512;BME280;72152;65.012;25.464;2023-12-20T15:38:47;98598.55;;;-5.28;74.23
82512;BME280;72152;65.012;25.464;2023-12-20T15:41:42;98604.21;;;-5.20;74.50
82512;BME280;72152;65.012;25.464;2023-12-20T15:44:49;98608.14;;;-5.14;74.25
82512;BME280;72152;65.012;25.464;2023-12-20T15:47:41;98612.23;;;-5.07;73.90
82512;BME280;72152;65.012;25.464;2023-12-20T15:50:43;98614.40;;;-5.03;73.58
82512;BME280;72152;65.012;25.464;2023-12-20T15:53:46;98616.63;;;-5.03;73.20
82512;BME280;72152;65.012;25.464;2023-12-20T15:56:46;98623.95;;;-5.06;72.99
82512;BME280;72152;65.012;25.464;2023-12-20T15:59:49;98629.16;;;-5.09;72.62
82512;BME280;72152;65.012;25.464;2023-12-20T16:02:50;98632.84;;;-5.14;72.22
82512;BME280;72152;65.012;25.464;2023-12-20T16:05:56;98640.42;;;-5.19;71.98
82512;BME280;72152;65.012;25.464;2023-12-20T16:09:06;98646.66;;;-5.22;71.93
82512;BME280;72152;65.012;25.464;2023-12-20T16:12:12;98654.61;;;-5.27;71.74
82512;BME280;72152;65.012;25.464;2023-12-20T16:15:08;98657.06;;;-5.31;71.78
82512;BME280;72152;65.012;25.464;2023-12-20T16:18:10;98658.97;;;-5.37;71.64
82512;BME280;72152;65.012;25.464;2023-12-20T16:21:18;98662.50;;;-5.39;71.79